createdAt,value
2023-05-16T00:02:08.175Z,15.90
2023-05-16T00:07:17.589Z,15.90
2023-05-16T00:12:26.164Z,15.90
2023-05-16T00:17:35.520Z,15.80
2023-05-16T00:22:44.131Z,15.80
2023-05-16T00:27:52.890Z,15.80
2023-05-16T00:33:01.299Z,15.80
2023-05-16T00:38:09.812Z,15.90
2023-05-16T00:43:18.238Z,15.90
2023-05-16T00:48:27.140Z,15.90
2023-05-16T00:53:35.404Z,15.80
2023-05-16T00:58:44.514Z,15.80
2023-05-16T01:03:53.300Z,15.90
2023-05-16T01:09:01.791Z,15.80
2023-05-16T01:14:10.391Z,15.80
2023-05-16T01:19:19.968Z,15.80
2023-05-16T01:24:28.817Z,15.90
2023-05-16T01:29:37.539Z,15.90
2023-05-16T01:34:46.039Z,15.90
2023-05-16T01:39:55.201Z,15.90
2023-05-16T01:45:03.866Z,15.90
2023-05-16T01:50:12.878Z,16.00
2023-05-16T01:55:21.693Z,16.00
2023-05-16T02:00:30.745Z,16.00
2023-05-16T02:05:42.142Z,16.00
2023-05-16T02:10:41.030Z,16.00
2023-05-16T02:15:49.822Z,16.00
2023-05-16T02:20:58.770Z,16.00
2023-05-16T02:26:07.449Z,16.00
2023-05-16T02:31:16.070Z,16.00
2023-05-16T02:36:24.524Z,16.00
2023-05-16T02:41:33.325Z,15.90
2023-05-16T02:46:42.028Z,15.90
2023-05-16T02:51:50.562Z,16.00
2023-05-16T02:56:59.411Z,16.00
2023-05-16T03:02:08.923Z,16.10
2023-05-16T03:07:17.308Z,16.10
2023-05-16T03:12:26.117Z,16.20
2023-05-16T03:17:35.375Z,16.40
2023-05-16T03:22:44.254Z,16.40
2023-05-16T03:27:52.452Z,16.60
2023-05-16T03:33:01.546Z,16.80
2023-05-16T03:38:10.006Z,16.90
2023-05-16T03:43:19.088Z,17.00
2023-05-16T03:48:27.853Z,17.20
2023-05-16T03:53:36.845Z,17.30
2023-05-16T03:58:45.098Z,17.50
2023-05-16T04:03:54.149Z,17.50
2023-05-16T04:09:02.794Z,17.60
2023-05-16T04:14:11.566Z,17.80
2023-05-16T04:19:21.224Z,17.90
2023-05-16T04:24:30.660Z,18.00
2023-05-16T04:29:39.028Z,18.10
2023-05-16T04:34:48.223Z,18.30
2023-05-16T04:39:57.595Z,18.40
2023-05-16T04:45:06.378Z,18.60
2023-05-16T04:50:14.964Z,18.70
2023-05-16T04:55:23.739Z,18.80
2023-05-16T05:00:33.001Z,18.80
2023-05-16T05:05:42.309Z,18.80
2023-05-16T05:10:50.957Z,18.90
2023-05-16T05:15:59.852Z,19.00
2023-05-16T05:21:08.342Z,19.00
2023-05-16T05:26:17.439Z,19.10
2023-05-16T05:36:35.299Z,19.20
2023-05-16T06:07:22.296Z,19.70
2023-05-16T06:12:30.898Z,19.80
2023-05-16T06:17:40.378Z,19.80
2023-05-16T06:27:58.278Z,20.00
2023-05-16T06:33:06.684Z,20.20
2023-05-16T06:38:15.606Z,20.40
2023-05-16T06:43:24.106Z,20.50
2023-05-16T06:48:33.307Z,20.60
2023-05-16T06:53:42.229Z,20.70
2023-05-16T06:58:51.579Z,20.80
2023-05-16T07:04:00.447Z,21.10
2023-05-16T07:09:09.130Z,21.30
2023-05-16T07:14:18.502Z,21.60
2023-05-16T07:19:27.613Z,21.70
2023-05-16T07:24:36.170Z,21.90
2023-05-16T07:29:45.534Z,22.10
2023-05-16T07:34:57.490Z,22.40
2023-05-16T07:39:56.375Z,22.60
2023-05-16T07:45:05.159Z,22.80
2023-05-16T07:50:14.331Z,22.90
2023-05-16T07:55:22.982Z,23.10
2023-05-16T08:00:31.930Z,23.30
2023-05-16T08:05:40.733Z,23.60
2023-05-16T08:10:50.043Z,24.00
2023-05-16T08:15:59.045Z,24.20
2023-05-16T08:21:08.542Z,24.50
2023-05-16T08:26:17.500Z,24.50
2023-05-16T08:31:26.868Z,24.40
2023-05-16T08:36:35.470Z,24.50
2023-05-16T08:41:44.429Z,24.60
2023-05-16T08:46:53.328Z,24.80
2023-05-16T08:52:03.027Z,24.90
2023-05-16T08:57:11.624Z,24.90
2023-05-16T09:02:21.198Z,24.90
2023-05-16T09:07:30.033Z,24.90
2023-05-16T09:12:38.856Z,25.00
2023-05-16T09:17:47.739Z,25.00
2023-05-16T09:22:56.307Z,25.00
2023-05-16T09:28:05.049Z,25.20
2023-05-16T09:33:14.152Z,25.60
2023-05-16T09:38:22.881Z,25.90
2023-05-16T09:43:31.916Z,26.20
2023-05-16T09:48:40.799Z,26.30
2023-05-16T09:53:49.860Z,26.40
2023-05-16T09:58:58.934Z,26.40
2023-05-16T10:04:07.912Z,26.50
2023-05-16T10:09:16.665Z,26.40
2023-05-16T10:14:25.733Z,26.20
2023-05-16T10:19:34.762Z,25.90
2023-05-16T10:24:44.057Z,25.60
2023-05-16T10:29:54.968Z,25.30
2023-05-16T10:35:01.978Z,24.90
2023-05-16T10:40:11.597Z,24.70
2023-05-16T10:45:21.455Z,24.50
2023-05-16T10:50:30.240Z,24.40
2023-05-16T10:55:39.193Z,24.30
2023-05-16T11:00:48.058Z,24.20
2023-05-16T11:05:57.245Z,24.00
2023-05-16T11:11:06.122Z,23.90
2023-05-16T11:16:15.717Z,23.90
2023-05-16T11:21:24.684Z,24.00
2023-05-16T11:26:34.144Z,24.00
2023-05-16T11:31:43.032Z,23.80
2023-05-16T11:36:51.900Z,23.90
2023-05-16T11:42:00.636Z,24.10
2023-05-16T11:47:10.465Z,24.00
2023-05-16T11:52:19.069Z,24.00
2023-05-16T11:57:27.986Z,24.20
2023-05-16T12:02:37.633Z,24.60
2023-05-16T12:07:46.801Z,24.70
2023-05-16T12:12:55.509Z,24.50
2023-05-16T12:18:04.815Z,24.30
2023-05-16T12:23:13.597Z,24.30
2023-05-16T12:28:22.677Z,24.40
2023-05-16T12:33:32.722Z,24.50
2023-05-16T12:38:42.226Z,24.50
2023-05-16T12:43:50.965Z,24.50
2023-05-16T12:49:00.104Z,24.80
2023-05-16T12:54:10.453Z,24.90
2023-05-16T12:59:17.724Z,24.70
2023-05-16T13:04:26.457Z,24.40
2023-05-16T13:09:35.185Z,24.50
2023-05-16T13:14:44.094Z,24.50
2023-05-16T13:19:53.724Z,24.40
2023-05-16T13:25:03.519Z,24.20
2023-05-16T13:30:12.602Z,24.30
2023-05-16T13:35:21.818Z,24.20
2023-05-16T13:40:31.156Z,24.10
2023-05-16T13:45:40.103Z,23.80
2023-05-16T13:50:49.498Z,23.50
2023-05-16T13:55:58.300Z,23.40
2023-05-16T14:01:08.025Z,23.30
2023-05-16T14:06:16.972Z,23.30
2023-05-16T14:11:28.864Z,23.50
2023-05-16T14:16:36.523Z,23.50
2023-05-16T14:21:44.757Z,23.50
2023-05-16T14:26:58.377Z,23.60
2023-05-16T14:31:57.417Z,23.60
2023-05-16T14:37:06.730Z,23.50
2023-05-16T14:42:16.101Z,23.50
2023-05-16T14:47:25.007Z,23.30
2023-05-16T14:52:34.020Z,23.00
2023-05-16T14:57:45.219Z,22.70
2023-05-16T15:02:52.559Z,22.50
2023-05-16T15:07:51.691Z,22.20
2023-05-16T15:13:01.567Z,22.00
2023-05-16T15:18:11.268Z,21.70
2023-05-16T15:23:20.761Z,21.70
2023-05-16T15:28:29.692Z,21.60
2023-05-16T15:33:39.668Z,21.60
2023-05-16T15:38:48.182Z,21.70
2023-05-16T15:43:57.819Z,21.80
2023-05-16T15:49:06.768Z,21.70
2023-05-16T15:54:16.249Z,21.70
2023-05-16T15:59:24.953Z,21.80
2023-05-16T16:04:33.951Z,21.60
2023-05-16T16:09:42.645Z,21.40
2023-05-16T16:14:52.113Z,21.40
2023-05-16T16:20:01.254Z,21.30
2023-05-16T16:25:09.956Z,21.20
2023-05-16T16:30:18.662Z,21.00
2023-05-16T16:35:28.627Z,20.90
2023-05-16T16:40:35.948Z,20.70
2023-05-16T16:45:45.354Z,20.60
2023-05-16T16:50:54.160Z,20.50
2023-05-16T16:56:03.039Z,20.40
2023-05-16T17:01:11.899Z,20.30
2023-05-16T17:06:20.976Z,20.30
2023-05-16T17:11:30.071Z,20.20
2023-05-16T17:16:39.214Z,20.20
2023-05-16T17:21:48.494Z,20.20
2023-05-16T17:26:57.689Z,20.20
2023-05-16T17:32:06.485Z,20.40
2023-05-16T17:37:15.426Z,20.40
2023-05-16T17:42:24.420Z,20.30
2023-05-16T17:47:33.259Z,20.10
2023-05-16T17:52:42.340Z,19.90
2023-05-16T17:57:51.335Z,19.70
2023-05-16T18:03:00.337Z,19.50
2023-05-16T18:08:10.223Z,19.20
2023-05-16T18:13:18.844Z,18.90
2023-05-16T18:28:48.156Z,18.00
2023-05-16T18:33:47.156Z,17.80
2023-05-16T18:38:56.583Z,17.60
2023-05-16T18:44:05.557Z,17.40
2023-05-16T18:49:14.680Z,17.20
2023-05-16T18:54:24.458Z,16.90
2023-05-16T18:59:31.887Z,16.60
2023-05-16T19:04:40.756Z,16.30
2023-05-16T19:09:53.159Z,16.10
2023-05-16T19:14:51.801Z,15.90
2023-05-16T19:20:01.854Z,15.80
2023-05-16T19:25:10.050Z,15.60
2023-05-16T19:30:19.164Z,15.40
2023-05-16T19:35:27.719Z,15.30
2023-05-16T19:40:36.273Z,15.10
2023-05-16T19:45:44.553Z,14.90
2023-05-16T19:50:53.797Z,14.80
2023-05-16T19:56:02.573Z,14.60
2023-05-16T20:01:11.185Z,14.60
2023-05-16T20:06:19.862Z,14.50
2023-05-16T20:11:29.241Z,14.30
2023-05-16T20:16:38.451Z,14.20
2023-05-16T20:21:48.154Z,14.00
2023-05-16T20:26:56.895Z,13.80
2023-05-16T20:32:06.217Z,13.70
2023-05-16T20:37:14.963Z,13.60
2023-05-16T20:42:24.346Z,13.50
2023-05-16T20:47:34.031Z,13.40
2023-05-16T20:52:43.079Z,13.40
2023-05-16T20:57:51.476Z,13.40
2023-05-16T21:03:00.751Z,13.30
2023-05-16T21:08:09.565Z,13.30
2023-05-16T21:13:18.474Z,13.20
2023-05-16T21:18:27.473Z,13.20
2023-05-16T21:23:36.558Z,13.10
2023-05-16T21:28:54.464Z,13.00
2023-05-16T21:33:54.212Z,13.00
2023-05-16T21:39:03.011Z,12.90
2023-05-16T21:44:11.926Z,12.80
2023-05-16T21:49:20.643Z,12.70
2023-05-16T21:54:29.773Z,12.70
2023-05-16T21:59:38.389Z,12.60
2023-05-16T22:04:47.272Z,12.50
2023-05-16T22:09:55.742Z,12.50
2023-05-16T22:15:04.718Z,12.40
2023-05-16T22:20:13.295Z,12.30
2023-05-16T22:25:21.883Z,12.30
2023-05-16T22:30:30.686Z,12.20
2023-05-16T22:35:39.619Z,12.10
2023-05-16T22:40:48.427Z,12.10
2023-05-16T22:46:01.455Z,12.00
2023-05-16T22:50:57.172Z,12.00
2023-05-16T22:56:06.296Z,12.00
2023-05-16T23:01:15.059Z,11.90
2023-05-16T23:06:24.076Z,12.00
2023-05-16T23:11:32.912Z,12.00
2023-05-16T23:16:42.115Z,12.10
2023-05-16T23:21:50.672Z,12.20
2023-05-16T23:26:59.543Z,12.30
2023-05-16T23:32:11.643Z,12.40
2023-05-16T23:37:10.487Z,12.40
2023-05-16T23:42:19.178Z,12.40
2023-05-16T23:47:28.400Z,12.40
2023-05-16T23:52:36.925Z,12.40
2023-05-16T23:57:45.768Z,12.40
